Time;durP1;ratioP1;P1;durP2;ratioP2;P2;SDS_P1;SDS_P2;PMS_P1;PMS_P2;Temp;Humidity;BMP_temperature;BMP_pressure;BME280_temperature;BME280_humidity;BME280_pressure;Samples;Min_cycle;Max_cycle;Signal;HPM_P1;HPM_P2
2023/03/16 00:01:41;;;;;;;17.00;7.93;;;;;;;-0.76;63.68;100407.25;10389630;28;20486;-60
2023/03/16 00:06:43;;;;;;;16.73;7.82;;;;;;;-0.77;63.79;100404.69;10390900;28;20048;-60
2023/03/16 00:11:45;;;;;;;17.73;7.95;;;;;;;-0.75;63.81;100408.13;10389506;28;20071;-61
2023/03/16 00:16:46;;;;;;;12.68;7.68;;;;;;;-0.86;63.89;100400.47;10389301;28;20056;-60
2023/03/16 00:21:51;;;;;;;17.20;8.23;;;;;;;-0.95;64.08;100399.69;10391266;28;20053;-61
2023/03/16 00:26:53;;;;;;;16.13;8.98;;;;;;;-1.02;64.21;100403.16;10389479;28;22200;-60
2023/03/16 00:31:55;;;;;;;15.55;8.55;;;;;;;-1.13;64.05;100408.34;10388329;28;20065;-61
2023/03/16 00:36:57;;;;;;;15.82;8.02;;;;;;;-1.17;64.63;100417.75;10392925;28;20112;-60
2023/03/16 00:41:58;;;;;;;16.02;8.43;;;;;;;-1.06;64.83;100432.28;10389962;28;20037;-60
2023/03/16 00:47:00;;;;;;;16.52;8.82;;;;;;;-0.92;64.54;100415.09;10386405;28;21708;-62
2023/03/16 00:52:06;;;;;;;14.52;8.50;;;;;;;-0.93;64.58;100419.34;10398233;28;20049;-60
2023/03/16 00:57:10;;;;;;;14.15;8.35;;;;;;;-0.88;64.47;100422.72;10422508;28;20510;-60
2023/03/16 01:02:13;;;;;;;18.23;8.77;;;;;;;-0.80;64.42;100415.00;10396702;28;20128;-61
2023/03/16 01:07:15;;;;;;;22.70;12.20;;;;;;;-0.87;64.21;100419.31;10422435;28;20045;-61
2023/03/16 01:12:18;;;;;;;23.63;12.75;;;;;;;-0.89;64.64;100405.63;10389358;28;20068;-61
2023/03/16 01:17:21;;;;;;;20.15;11.40;;;;;;;-0.87;64.28;100403.91;10387231;28;20520;-60
2023/03/16 01:22:22;;;;;;;21.55;10.65;;;;;;;-0.89;64.21;100405.63;10388745;28;20045;-60
2023/03/16 01:27:25;;;;;;;18.40;10.30;;;;;;;-0.93;64.44;100386.00;10384001;28;20037;-60
2023/03/16 01:32:26;;;;;;;23.80;11.48;;;;;;;-0.91;64.05;100373.13;10387722;28;20565;-61
2023/03/16 01:37:28;;;;;;;19.55;11.35;;;;;;;-1.10;64.21;100376.69;10389739;28;20490;-61
2023/03/16 01:42:30;;;;;;;21.15;12.02;;;;;;;-1.20;64.37;100366.47;10390495;28;20492;-61
2023/03/16 01:47:37;;;;;;;18.95;11.27;;;;;;;-1.30;64.77;100372.50;10395291;28;20060;-60
2023/03/16 01:52:39;;;;;;;21.95;11.70;;;;;;;-1.27;64.81;100381.91;10388059;28;20127;-60
2023/03/16 01:57:43;;;;;;;18.00;10.75;;;;;;;-1.17;64.75;100378.44;10386021;28;20041;-61
2023/03/16 02:02:53;;;;;;;18.55;11.18;;;;;;;-1.10;64.56;100374.13;10387988;28;20047;-60
2023/03/16 02:07:57;;;;;;;20.25;11.80;;;;;;;-1.09;64.60;100361.28;10385994;28;20057;-60
2023/03/16 02:13:00;;;;;;;21.90;11.93;;;;;;;-1.00;64.49;100356.06;10385183;28;20052;-60
2023/03/16 02:18:04;;;;;;;23.67;11.20;;;;;;;-0.95;64.37;100354.34;10388182;28;20049;-61
2023/03/16 02:23:17;;;;;;;19.02;11.32;;;;;;;-0.90;64.38;100336.34;10387458;28;20295;-60
2023/03/16 02:29:03;;;;;;;21.38;10.88;;;;;;;-1.11;64.90;100331.34;10386240;28;20486;-60
2023/03/16 02:34:06;;;;;;;18.85;10.57;;;;;;;-0.90;64.45;100319.19;10387407;28;20040;-60
2023/03/16 02:39:08;;;;;;;18.58;10.52;;;;;;;-0.67;64.29;100314.75;10394153;28;20046;-61
2023/03/16 02:44:15;;;;;;;20.38;11.32;;;;;;;-0.74;64.16;100312.25;10395683;28;20048;-61
2023/03/16 02:49:28;;;;;;;18.65;10.63;;;;;;;-0.76;64.44;100319.13;10391884;28;20049;-61
2023/03/16 02:54:30;;;;;;;21.65;11.48;;;;;;;-0.87;64.37;100313.19;10390205;28;20051;-60
2023/03/16 02:59:32;;;;;;;23.27;11.85;;;;;;;-0.93;64.38;100314.09;10390320;28;20493;-61
2023/03/16 03:04:33;;;;;;;18.60;11.38;;;;;;;-0.98;64.31;100303.00;10437522;28;20527;-60
2023/03/16 03:09:35;;;;;;;19.67;10.35;;;;;;;-1.31;64.45;100309.22;10400663;28;20052;-60
2023/03/16 03:14:38;;;;;;;17.90;11.23;;;;;;;-1.51;65.01;100310.19;10406010;28;20054;-60
2023/03/16 03:19:40;;;;;;;18.13;10.68;;;;;;;-1.37;65.25;100309.25;10402540;28;20056;-60
2023/03/16 03:24:43;;;;;;;18.00;9.85;;;;;;;-1.24;64.85;100305.75;10398283;28;20052;-61
2023/03/16 03:29:45;;;;;;;17.20;10.50;;;;;;;-1.18;64.83;100299.72;10394584;28;20052;-60
2023/03/16 03:34:46;;;;;;;16.90;10.35;;;;;;;-1.18;64.62;100305.72;10401693;28;20049;-60
2023/03/16 03:39:48;;;;;;;17.98;10.23;;;;;;;-1.19;64.65;100287.78;10401456;28;20060;-61
2023/03/16 03:44:51;;;;;;;21.13;12.05;;;;;;;-1.26;64.57;100293.78;10400223;28;20083;-60
2023/03/16 03:49:53;;;;;;;20.92;11.73;;;;;;;-1.42;64.86;100300.75;10393054;28;20056;-60
2023/03/16 03:54:54;;;;;;;22.48;11.68;;;;;;;-1.39;64.91;100300.69;10399176;28;20401;-60
2023/03/16 03:59:56;;;;;;;19.42;10.80;;;;;;;-1.33;65.11;100289.56;10397715;28;20041;-60
2023/03/16 04:04:57;;;;;;;17.40;10.48;;;;;;;-1.38;65.05;100289.59;10399168;28;20049;-60
2023/03/16 04:09:59;;;;;;;16.50;10.02;;;;;;;-1.31;65.05;100272.47;10375821;28;20046;-60
2023/03/16 04:15:02;;;;;;;19.25;10.90;;;;;;;-1.49;64.81;100282.84;10391670;28;20056;-59
2023/03/16 04:20:10;;;;;;;20.67;10.38;;;;;;;-1.44;64.72;100286.22;10396502;28;20405;-60
2023/03/16 04:25:14;;;;;;;18.80;10.68;;;;;;;-1.50;64.91;100289.66;10372725;28;20045;-60
2023/03/16 04:30:16;;;;;;;21.17;11.90;;;;;;;-1.48;64.85;100277.69;10390721;28;20179;-60
2023/03/16 04:35:18;;;;;;;18.20;10.10;;;;;;;-1.59;64.84;100281.16;10388455;28;20516;-60
2023/03/16 04:40:20;;;;;;;23.00;11.50;;;;;;;-1.57;64.98;100269.16;10393364;28;20123;-60
2023/03/16 04:45:21;;;;;;;18.85;10.30;;;;;;;-1.56;64.93;100278.59;10390140;28;20425;-60
2023/03/16 04:50:24;;;;;;;19.02;11.35;;;;;;;-1.57;64.94;100274.31;10388255;28;20037;-61
2023/03/16 04:55:26;;;;;;;18.35;10.98;;;;;;;-1.44;64.80;100265.69;10402050;28;20057;-60
2023/03/16 05:00:28;;;;;;;19.20;10.40;;;;;;;-1.34;64.90;100264.75;10409547;28;20521;-60
2023/03/16 05:05:30;;;;;;;16.95;10.20;;;;;;;-1.42;64.59;100263.97;10399058;28;20096;-60
2023/03/16 05:10:33;;;;;;;21.13;11.50;;;;;;;-1.42;64.93;100258.84;10407091;28;20045;-59
2023/03/16 05:15:35;;;;;;;19.08;11.15;;;;;;;-1.43;64.62;100247.72;10389010;28;20072;-60
2023/03/16 05:20:36;;;;;;;15.95;10.00;;;;;;;-1.62;64.97;100253.84;10390586;28;20080;-60
2023/03/16 05:25:39;;;;;;;18.17;10.77;;;;;;;-1.58;65.24;100244.41;10408714;28;20489;-60
2023/03/16 05:30:42;;;;;;;20.95;12.25;;;;;;;-1.34;65.17;100241.69;10389063;28;20048;-60
2023/03/16 05:35:43;;;;;;;26.73;13.48;;;;;;;-1.19;64.86;100250.09;10387473;28;20049;-61
2023/03/16 05:40:45;;;;;;;19.55;11.82;;;;;;;-1.11;64.95;100234.69;10387405;28;20328;-60
2023/03/16 05:45:49;;;;;;;21.25;12.18;;;;;;;-0.92;64.71;100236.22;10389724;28;20049;-60
2023/03/16 05:50:51;;;;;;;25.52;12.70;;;;;;;-0.69;64.43;100236.00;10388844;28;20037;-60
2023/03/16 05:55:53;;;;;;;20.85;11.57;;;;;;;-0.61;64.28;100241.91;10388293;28;20041;-60
2023/03/16 06:00:57;;;;;;;24.02;13.32;;;;;;;-0.57;64.02;100244.44;10388736;28;20312;-60
2023/03/16 06:06:00;;;;;;;21.10;11.68;;;;;;;-0.45;63.74;100246.03;10393687;28;20045;-60
2023/03/16 06:11:03;;;;;;;16.52;10.75;;;;;;;-0.32;63.92;100252.75;10391584;28;20079;-60
2023/03/16 06:16:05;;;;;;;21.08;11.75;;;;;;;-0.11;63.44;100243.97;10396776;28;20049;-60
2023/03/16 06:21:07;;;;;;;20.80;11.82;;;;;;;0.06;63.31;100240.31;10385933;28;20087;-61
2023/03/16 06:26:08;;;;;;;16.98;10.95;;;;;;;0.22;62.74;100234.09;10392597;28;20053;-61
2023/03/16 06:31:10;;;;;;;22.23;12.40;;;;;;;0.31;62.76;100246.00;10389211;28;20048;-61
2023/03/16 06:36:12;;;;;;;19.38;10.88;;;;;;;0.50;62.47;100250.84;10394435;28;20049;-61
2023/03/16 06:41:14;;;;;;;18.00;10.75;;;;;;;0.67;62.31;100263.47;10393647;28;20081;-61
2023/03/16 06:46:15;;;;;;;18.48;11.07;;;;;;;0.81;61.98;100248.69;10389458;28;20057;-61
2023/03/16 06:51:18;;;;;;;17.42;11.15;;;;;;;0.78;62.11;100263.34;10388013;28;20621;-60
2023/03/16 06:56:21;;;;;;;21.48;11.32;;;;;;;0.89;61.66;100248.59;10411575;28;20065;-61
2023/03/16 07:01:23;;;;;;;19.83;11.13;;;;;;;0.88;61.37;100245.16;10390358;28;20136;-60
2023/03/16 07:06:25;;;;;;;18.08;11.27;;;;;;;1.04;61.17;100254.34;10413171;28;20128;-60
2023/03/16 07:11:26;;;;;;;18.63;10.50;;;;;;;1.23;61.07;100260.03;10391108;28;20445;-61
2023/03/16 07:16:28;;;;;;;19.02;11.25;;;;;;;1.30;60.88;100257.31;10390340;28;20041;-60
2023/03/16 07:21:37;;;;;;;21.85;11.85;;;;;;;1.29;60.87;100250.50;10394557;28;20188;-61
2023/03/16 07:26:40;;;;;;;20.48;11.95;;;;;;;1.31;61.12;100258.19;10394966;28;20048;-60
2023/03/16 07:31:42;;;;;;;19.65;10.40;;;;;;;1.48;60.63;100257.91;10390843;28;20069;-60
2023/03/16 07:36:43;;;;;;;16.88;10.55;;;;;;;1.77;60.11;100255.59;10393333;28;20102;-60
2023/03/16 07:41:45;;;;;;;20.05;11.60;;;;;;;2.04;59.89;100262.81;10392918;28;20087;-70
2023/03/16 07:46:47;;;;;;;18.65;9.85;;;;;;;2.10;59.13;100253.25;10392516;28;20045;-69
2023/03/16 07:51:48;;;;;;;14.35;9.75;;;;;;;2.13;59.37;100247.16;10393392;28;20056;-69
2023/03/16 07:56:50;;;;;;;17.88;10.45;;;;;;;2.50;58.70;100242.91;10392016;28;20049;-70
2023/03/16 08:01:52;;;;;;;20.67;10.55;;;;;;;2.96;57.96;100247.88;10395847;28;20133;-71
2023/03/16 08:06:58;;;;;;;17.52;10.55;;;;;;;3.26;57.55;100238.50;10388561;28;20509;-71
2023/03/16 08:12:02;;;;;;;16.58;10.27;;;;;;;3.36;56.62;100237.38;10411491;28;20136;-72
2023/03/16 08:17:06;;;;;;;18.85;10.63;;;;;;;3.60;56.59;100227.25;10424862;28;20049;-70
2023/03/16 08:22:08;;;;;;;17.73;10.25;;;;;;;4.25;55.86;100224.63;10396727;28;20217;-70
2023/03/16 08:27:09;;;;;;;16.20;9.63;;;;;;;4.38;54.65;100213.84;10386956;28;20056;-70
2023/03/16 08:32:11;;;;;;;15.30;9.65;;;;;;;4.36;54.68;100223.41;10395012;28;20050;-71
2023/03/16 08:37:13;;;;;;;15.80;8.85;;;;;;;4.26;54.48;100211.63;10386795;28;20057;-70
2023/03/16 08:42:15;;;;;;;17.02;9.77;;;;;;;4.44;54.53;100212.78;10396448;28;20053;-71
2023/03/16 08:47:18;;;;;;;14.80;8.60;;;;;;;4.58;53.99;100198.53;10384385;28;20567;-69
2023/03/16 08:52:20;;;;;;;13.50;8.63;;;;;;;4.72;54.46;100182.53;10394795;28;20516;-70
2023/03/16 08:57:23;;;;;;;13.82;8.20;;;;;;;4.61;53.99;100190.69;10386047;28;20413;-69
2023/03/16 09:02:25;;;;;;;15.43;8.63;;;;;;;4.74;54.32;100185.94;10387476;28;20068;-71
2023/03/16 09:07:28;;;;;;;16.08;9.02;;;;;;;5.06;53.83;100175.38;10385330;28;20398;-70
2023/03/16 09:12:30;;;;;;;14.23;9.23;;;;;;;5.23;53.08;100169.59;10385883;28;20045;-69
2023/03/16 09:17:32;;;;;;;16.35;9.23;;;;;;;5.09;53.73;100162.31;10416882;28;20053;-71
2023/03/16 09:22:36;;;;;;;14.13;8.73;;;;;;;5.05;53.70;100159.88;10385185;28;20057;-71
2023/03/16 09:27:39;;;;;;;15.27;8.73;;;;;;;5.06;53.61;100166.75;10424846;28;20402;-70
2023/03/16 09:32:41;;;;;;;16.25;9.02;;;;;;;5.34;52.93;100162.31;10384170;28;20051;-71
2023/03/16 09:37:44;;;;;;;12.73;7.90;;;;;;;5.85;52.99;100164.81;10386404;28;20041;-71
2023/03/16 09:43:08;;;;;;;16.30;7.60;;;;;;;6.21;51.22;100159.06;10416264;28;20071;-69
2023/03/16 09:48:09;;;;;;;14.60;8.00;;;;;;;6.72;51.21;100157.97;10430242;28;20048;-71
2023/03/16 09:53:26;;;;;;;14.77;7.63;;;;;;;7.41;50.14;100151.56;10433744;28;20535;-71
2023/03/16 09:58:28;;;;;;;12.77;7.45;;;;;;;7.92;49.59;100154.47;10420009;28;20518;-70
2023/03/16 10:03:56;;;;;;;12.52;7.38;;;;;;;8.02;48.92;100153.97;10411254;28;20275;-70
2023/03/16 10:09:25;;;;;;;13.57;5.78;;;;;;;8.42;48.20;100128.72;10394369;28;20369;-71
2023/03/16 10:14:36;;;;;;;9.38;5.70;;;;;;;8.94;47.74;100127.84;10412782;28;20059;-70
2023/03/16 10:19:44;;;;;;;9.45;5.07;;;;;;;9.31;47.18;100124.22;10402778;28;20072;-71
2023/03/16 10:24:56;;;;;;;9.05;5.40;;;;;;;9.11;46.86;100122.63;10447870;28;20053;-69
2023/03/16 10:30:00;;;;;;;10.05;4.90;;;;;;;9.39;47.60;100127.28;10400765;28;20514;-71
2023/03/16 10:35:18;;;;;;;7.18;4.57;;;;;;;9.67;44.64;100117.09;10390744;28;20099;-70
2023/03/16 10:40:21;;;;;;;8.07;4.40;;;;;;;10.12;46.01;100116.38;10417422;28;20084;-71
2023/03/16 10:45:30;;;;;;;7.38;4.32;;;;;;;10.24;45.02;100103.50;10431279;28;20143;-71
2023/03/16 10:50:33;;;;;;;7.32;3.80;;;;;;;10.46;44.90;100105.78;10395044;28;20049;-71
2023/03/16 10:55:42;;;;;;;9.40;3.75;;;;;;;10.23;43.92;100088.75;10431991;28;20527;-70
2023/03/16 11:00:45;;;;;;;5.95;3.38;;;;;;;10.10;44.08;100089.50;10391030;28;20059;-71
2023/03/16 11:05:46;;;;;;;6.03;3.42;;;;;;;10.04;44.01;100087.22;10396668;28;20045;-71
2023/03/16 11:11:01;;;;;;;7.57;3.72;;;;;;;10.21;43.21;100090.63;10425176;28;20053;-71
2023/03/16 11:16:16;;;;;;;7.97;3.80;;;;;;;10.29;44.04;100077.97;10395773;28;20417;-71
2023/03/16 11:21:56;;;;;;;8.95;3.60;;;;;;;10.52;42.51;100067.00;10430948;28;20056;-71
2023/03/16 11:27:02;;;;;;;5.88;3.47;;;;;;;10.47;43.26;100073.44;10353805;28;20602;-71
2023/03/16 11:32:06;;;;;;;6.60;3.45;;;;;;;10.41;42.65;100060.72;10402261;28;20053;-71
2023/03/16 11:37:24;;;;;;;7.15;3.55;;;;;;;10.69;42.08;100049.50;10440173;28;20164;-71
2023/03/16 11:42:40;;;;;;;6.97;3.63;;;;;;;11.04;42.20;100030.84;10388812;28;20527;-70
2023/03/16 11:48:23;;;;;;;7.85;3.58;;;;;;;11.23;41.21;100035.81;10426196;28;20504;-72
2023/03/16 11:53:28;;;;;;;8.48;3.80;;;;;;;11.30;41.41;100030.09;10392514;28;20049;-71
2023/03/16 11:58:36;;;;;;;7.68;3.78;;;;;;;10.92;41.71;100031.53;10391014;28;20037;-71
2023/03/16 12:03:44;;;;;;;7.28;4.20;;;;;;;10.64;41.43;100026.25;10384302;28;20143;-72
2023/03/16 12:09:05;;;;;;;6.90;4.43;;;;;;;10.82;42.12;100022.56;10384403;28;20405;-70
2023/03/16 12:14:14;;;;;;;7.85;3.90;;;;;;;10.63;42.41;100024.56;10389291;28;20064;-71
2023/03/16 12:19:42;;;;;;;8.50;4.30;;;;;;;10.58;41.54;100010.94;10387788;28;20054;-70
2023/03/16 12:24:45;;;;;;;6.00;3.80;;;;;;;10.71;42.30;99992.72;10366307;28;20141;-72
2023/03/16 12:30:02;;;;;;;8.45;4.10;;;;;;;11.04;41.04;99985.50;10387981;28;20074;-71
2023/03/16 12:35:12;;;;;;;9.10;4.25;;;;;;;11.51;41.11;99977.34;10389525;28;20521;-71
2023/03/16 12:40:21;;;;;;;5.80;3.70;;;;;;;11.93;40.33;99966.72;10385269;28;20049;-72
2023/03/16 12:45:47;;;;;;;6.25;3.60;;;;;;;11.91;38.02;99958.97;10409823;28;20889;-72
2023/03/16 12:50:56;;;;;;;6.28;3.20;;;;;;;11.50;38.98;99941.63;10381675;28;20081;-72
2023/03/16 12:56:08;;;;;;;6.22;3.40;;;;;;;11.19;39.96;99945.31;10396067;28;20049;-70
2023/03/16 13:01:14;;;;;;;6.40;3.17;;;;;;;11.12;40.11;99934.38;10385180;28;20046;-72
2023/03/16 13:06:19;;;;;;;5.40;3.22;;;;;;;11.09;39.92;99937.16;10397841;28;20088;-71
2023/03/16 13:11:21;;;;;;;6.18;2.70;;;;;;;11.20;39.98;99932.13;10377037;28;20045;-72
2023/03/16 13:16:29;;;;;;;5.70;2.80;;;;;;;11.51;39.22;99924.94;10388517;28;20096;-72
2023/03/16 13:21:40;;;;;;;6.78;3.00;;;;;;;11.37;38.46;99917.13;10382599;28;20303;-72
2023/03/16 13:26:46;;;;;;;5.53;2.75;;;;;;;11.34;38.43;99922.56;10386804;28;20056;-72
2023/03/16 13:31:48;;;;;;;6.43;3.08;;;;;;;11.52;39.08;99913.56;10381669;28;20048;-71
2023/03/16 13:36:55;;;;;;;6.43;3.10;;;;;;;11.45;38.47;99920.09;10391385;28;20413;-72
2023/03/16 13:42:13;;;;;;;6.65;3.40;;;;;;;11.33;38.93;99903.41;10383497;28;20049;-70
2023/03/16 13:47:17;;;;;;;7.80;3.22;;;;;;;11.41;38.85;99895.06;10389642;28;20050;-71
2023/03/16 13:52:25;;;;;;;6.22;2.90;;;;;;;11.52;38.02;99896.03;10382900;28;20049;-72
2023/03/16 13:57:30;;;;;;;5.05;2.80;;;;;;;11.59;38.48;99883.38;10397353;28;20294;-71
2023/03/16 14:02:41;;;;;;;6.13;2.58;;;;;;;11.41;37.55;99877.56;10387186;28;20053;-71
2023/03/16 14:07:47;;;;;;;4.38;2.42;;;;;;;11.59;37.95;99859.81;10389827;28;20076;-70
2023/03/16 14:12:57;;;;;;;6.50;2.58;;;;;;;11.63;37.26;99874.41;10387621;28;20203;-72
2023/03/16 14:18:21;;;;;;;8.27;2.60;;;;;;;11.65;37.49;99862.03;10390893;28;20050;-69
2023/03/16 14:23:33;;;;;;;5.32;2.70;;;;;;;11.58;37.60;99829.34;10386680;28;20483;-71
2023/03/16 14:28:35;;;;;;;6.70;2.55;;;;;;;11.55;37.34;99837.38;10395562;28;20060;-71
2023/03/16 14:33:41;;;;;;;5.47;2.42;;;;;;;11.65;36.41;99838.47;10388749;28;20433;-71
2023/03/16 14:38:47;;;;;;;4.68;2.60;;;;;;;11.68;36.52;99831.22;10393396;28;20120;-70
2023/03/16 14:43:54;;;;;;;4.45;2.63;;;;;;;11.70;36.83;99828.53;10394642;28;20140;-70
2023/03/16 14:49:04;;;;;;;5.78;2.80;;;;;;;11.64;36.16;99831.56;10395514;28;20045;-70
2023/03/16 14:54:13;;;;;;;6.03;2.92;;;;;;;11.58;35.98;99834.59;10393531;28;20491;-70
2023/03/16 14:59:15;;;;;;;4.77;2.40;;;;;;;11.65;37.58;99825.38;10398961;28;20053;-70
2023/03/16 15:04:23;;;;;;;5.15;2.80;;;;;;;11.53;36.81;99816.53;10392240;28;20057;-70
2023/03/16 15:09:34;;;;;;;4.60;2.90;;;;;;;11.31;36.79;99808.41;10398315;28;20037;-70
2023/03/16 15:19:56;;;;;;;6.43;2.90;;;;;;;10.90;37.46;99803.16;10390943;28;20253;-69
2023/03/16 15:25:00;;;;;;;4.75;2.40;;;;;;;11.01;37.45;99802.50;10380982;28;20049;-69
2023/03/16 15:30:02;;;;;;;6.50;2.40;;;;;;;11.21;37.19;99787.19;10391473;28;20056;-70
2023/03/16 15:35:04;;;;;;;5.05;2.47;;;;;;;11.31;37.27;99792.69;10395177;28;20060;-69
2023/03/16 15:40:22;;;;;;;4.88;2.15;;;;;;;11.38;36.80;99793.16;10392277;28;20144;-69
2023/03/16 15:45:24;;;;;;;3.58;2.05;;;;;;;11.23;37.75;99780.09;10377070;28;20045;-70
2023/03/16 15:50:26;;;;;;;4.80;2.03;;;;;;;10.98;36.97;99774.72;10389622;28;20045;-70
2023/03/16 15:55:33;;;;;;;4.38;1.92;;;;;;;11.00;37.34;99767.63;10391616;28;20045;-69
2023/03/16 16:00:36;;;;;;;3.78;1.80;;;;;;;10.96;37.39;99771.38;10389648;28;20300;-70
2023/03/16 16:05:39;;;;;;;6.78;2.00;;;;;;;10.88;37.57;99757.94;10388430;28;20588;-70
2023/03/16 16:10:42;;;;;;;3.80;1.95;;;;;;;10.76;37.88;99760.50;10394104;28;20050;-70
2023/03/16 16:15:45;;;;;;;4.93;2.10;;;;;;;10.71;38.46;99762.53;10384299;28;20072;-70
2023/03/16 16:20:48;;;;;;;6.03;2.05;;;;;;;10.59;38.89;99756.31;10385692;28;20053;-69
2023/03/16 16:25:53;;;;;;;5.28;2.10;;;;;;;10.52;38.70;99755.84;10386363;28;20099;-69
2023/03/16 16:30:56;;;;;;;4.22;1.90;;;;;;;10.49;38.60;99753.44;10389060;28;20508;-70
2023/03/16 16:36:00;;;;;;;5.00;2.08;;;;;;;10.29;39.17;99766.06;10387033;28;20057;-68
2023/03/16 16:41:07;;;;;;;5.68;2.10;;;;;;;10.20;38.36;99751.75;10390081;28;20052;-69
2023/03/16 16:46:12;;;;;;;5.00;2.10;;;;;;;10.02;39.15;99746.81;10390363;28;20060;-70
2023/03/16 16:51:20;;;;;;;3.88;2.03;;;;;;;9.86;39.05;99751.28;10406390;28;20406;-70
2023/03/16 16:56:27;;;;;;;4.25;2.03;;;;;;;9.70;39.13;99745.28;10387859;28;20053;-70
2023/03/16 17:01:33;;;;;;;5.93;2.10;;;;;;;9.62;39.68;99751.78;10404059;28;20643;-69
2023/03/16 17:06:35;;;;;;;4.38;2.10;;;;;;;9.50;39.54;99736.81;10387308;28;20055;-70
2023/03/16 17:11:37;;;;;;;3.60;2.33;;;;;;;9.46;40.17;99745.75;10388288;28;20041;-70
2023/03/16 17:16:39;;;;;;;6.57;2.40;;;;;;;9.29;40.49;99742.44;10387747;28;20057;-70
2023/03/16 17:21:41;;;;;;;4.28;2.30;;;;;;;9.14;40.62;99746.75;10387127;28;20095;-70
2023/03/16 17:26:45;;;;;;;5.70;2.30;;;;;;;9.07;40.84;99755.88;10391240;28;20045;-70
2023/03/16 17:31:48;;;;;;;4.00;2.45;;;;;;;8.93;41.29;99745.38;10394535;28;20052;-70
2023/03/16 17:36:51;;;;;;;7.13;2.50;;;;;;;8.72;41.62;99750.00;10388041;28;20140;-71
2023/03/16 17:41:52;;;;;;;5.55;2.90;;;;;;;8.55;42.03;99752.69;10395025;28;20128;-70
2023/03/16 17:46:54;;;;;;;5.60;2.80;;;;;;;8.45;41.98;99745.44;10386113;28;20041;-70
2023/03/16 17:51:56;;;;;;;5.93;2.80;;;;;;;8.31;42.45;99738.38;10399138;28;20136;-70
2023/03/16 17:56:58;;;;;;;9.18;2.90;;;;;;;8.07;42.85;99738.78;10387655;28;20049;-70
2023/03/16 18:02:00;;;;;;;9.23;3.83;;;;;;;7.94;43.86;99743.78;10392096;28;20046;-71
2023/03/16 18:07:01;;;;;;;6.55;3.72;;;;;;;7.88;44.66;99749.31;10392906;28;20057;-70
2023/03/16 18:12:04;;;;;;;8.82;5.20;;;;;;;7.80;46.03;99748.88;10388416;28;20088;-70
2023/03/16 18:17:45;;;;;;;9.27;4.97;;;;;;;7.61;47.65;99750.75;10388546;28;20080;-71
2023/03/16 18:22:46;;;;;;;12.85;5.25;;;;;;;7.63;47.35;99741.91;10274395;28;20105;-71
2023/03/16 18:27:48;;;;;;;9.25;5.40;;;;;;;7.53;48.08;99748.50;10362883;28;20342;-71
2023/03/16 18:32:50;;;;;;;8.38;5.45;;;;;;;7.43;48.54;99744.69;10393368;28;20401;-70
2023/03/16 18:37:53;;;;;;;8.07;5.10;;;;;;;7.39;48.66;99747.50;10391093;28;20135;-71
2023/03/16 18:42:55;;;;;;;10.20;5.60;;;;;;;7.30;49.01;99751.44;10411958;28;20283;-71
2023/03/16 18:47:57;;;;;;;8.32;5.15;;;;;;;7.18;49.47;99744.22;10384976;28;20049;-71
2023/03/16 18:52:59;;;;;;;8.38;5.00;;;;;;;7.19;49.45;99745.91;10397590;28;20049;-70
2023/03/16 18:58:00;;;;;;;8.43;5.63;;;;;;;7.07;50.13;99747.34;10393709;28;20037;-71
2023/03/16 19:03:08;;;;;;;8.00;5.60;;;;;;;7.08;50.38;99753.41;10400238;28;20041;-66
2023/03/16 19:08:12;;;;;;;10.82;5.95;;;;;;;7.05;50.68;99758.72;10399161;28;20136;-66
2023/03/16 19:13:18;;;;;;;13.13;7.75;;;;;;;6.91;50.95;99758.56;10398416;28;20053;-65
2023/03/16 19:18:21;;;;;;;15.40;7.20;;;;;;;6.84;51.25;99764.94;10372413;28;20044;-65
2023/03/16 19:23:34;;;;;;;16.15;8.95;;;;;;;6.68;51.67;99756.19;10387734;28;20409;-65
2023/03/16 19:28:38;;;;;;;13.90;7.28;;;;;;;6.55;51.37;99753.31;10399186;28;20410;-65
2023/03/16 19:33:39;;;;;;;12.68;6.90;;;;;;;6.43;51.96;99753.88;10386904;28;20064;-66
2023/03/16 19:38:41;;;;;;;11.90;7.53;;;;;;;6.35;52.36;99751.63;10388030;28;20048;-65
2023/03/16 19:43:43;;;;;;;12.20;6.85;;;;;;;6.36;52.34;99744.69;10399357;28;20420;-65
2023/03/16 19:48:45;;;;;;;10.57;6.65;;;;;;;6.35;52.17;99736.03;10400146;28;20049;-65
2023/03/16 19:53:47;;;;;;;10.32;6.75;;;;;;;6.37;52.32;99742.94;10389854;28;20426;-66
2023/03/16 19:58:51;;;;;;;8.73;4.82;;;;;;;6.34;52.18;99736.13;10394316;28;20599;-64
2023/03/16 20:03:52;;;;;;;11.27;7.13;;;;;;;6.26;52.27;99736.47;10392496;28;20049;-65
2023/03/16 20:08:54;;;;;;;8.90;4.95;;;;;;;6.20;52.26;99736.72;10397510;28;20077;-65
2023/03/16 20:13:57;;;;;;;11.05;6.90;;;;;;;6.09;52.85;99733.75;10383268;28;20052;-65
2023/03/16 20:19:04;;;;;;;14.13;8.77;;;;;;;5.99;53.26;99731.63;10382600;28;20065;-65
2023/03/16 20:24:27;;;;;;;9.85;5.90;;;;;;;5.86;54.34;99723.53;10378920;28;20057;-65
2023/03/16 20:29:31;;;;;;;11.57;5.85;;;;;;;5.84;53.75;99719.34;10384200;28;20053;-65
2023/03/16 20:34:33;;;;;;;12.30;6.10;;;;;;;5.82;54.12;99729.75;10383120;28;20127;-64
2023/03/16 20:39:37;;;;;;;11.18;7.30;;;;;;;5.75;54.03;99720.56;10390559;28;20065;-65
2023/03/16 20:44:39;;;;;;;11.65;6.10;;;;;;;5.61;54.53;99717.72;10366471;28;20071;-64
2023/03/16 20:49:41;;;;;;;15.68;9.88;;;;;;;5.54;54.63;99717.16;10389494;28;20046;-64
2023/03/16 20:54:43;;;;;;;15.32;9.73;;;;;;;5.44;54.64;99705.47;10386144;28;20095;-65
2023/03/16 20:59:46;;;;;;;15.07;9.68;;;;;;;5.31;55.09;99706.06;10374113;28;20049;-65
2023/03/16 21:04:48;;;;;;;13.68;8.05;;;;;;;5.21;55.39;99708.19;10382171;28;20516;-65
2023/03/16 21:09:53;;;;;;;9.48;5.75;;;;;;;5.15;55.83;99700.66;10388029;28;20148;-64
2023/03/16 21:14:56;;;;;;;14.45;9.98;;;;;;;5.06;55.87;99701.06;10385775;28;20383;-65
2023/03/16 21:19:59;;;;;;;26.48;15.95;;;;;;;4.94;56.14;99700.72;10385214;28;20492;-65
2023/03/16 21:25:00;;;;;;;15.07;10.60;;;;;;;4.83;56.43;99688.19;10369344;28;20489;-65
2023/03/16 21:30:11;;;;;;;9.13;5.38;;;;;;;4.74;57.08;99683.34;10388399;28;20064;-64
2023/03/16 21:35:14;;;;;;;13.07;6.25;;;;;;;4.67;57.23;99679.34;10394223;28;20053;-64
2023/03/16 21:40:19;;;;;;;10.40;6.40;;;;;;;4.63;57.51;99685.53;10400362;28;20490;-64
2023/03/16 21:45:21;;;;;;;11.75;7.35;;;;;;;4.60;57.66;99681.31;10400554;28;20504;-64
2023/03/16 21:50:27;;;;;;;15.48;8.20;;;;;;;4.52;57.89;99673.00;10399389;28;20040;-65
2023/03/16 21:55:31;;;;;;;12.23;6.80;;;;;;;4.46;57.95;99678.44;10399706;28;20143;-64
2023/03/16 22:00:35;;;;;;;11.90;7.18;;;;;;;4.34;58.25;99671.13;10395614;28;20050;-65
2023/03/16 22:05:41;;;;;;;13.23;8.52;;;;;;;4.25;58.16;99658.53;10401785;28;20482;-65
2023/03/16 22:10:44;;;;;;;10.45;6.63;;;;;;;4.20;58.61;99652.72;10397031;28;20037;-64
2023/03/16 22:15:48;;;;;;;9.82;5.32;;;;;;;4.17;58.73;99655.41;10388280;28;20049;-64
2023/03/16 22:20:50;;;;;;;9.13;5.78;;;;;;;4.13;58.75;99653.81;10397108;28;20060;-65
2023/03/16 22:25:52;;;;;;;12.00;7.45;;;;;;;4.04;58.71;99641.25;10396048;28;20049;-65
2023/03/16 22:30:56;;;;;;;19.00;9.23;;;;;;;3.87;59.10;99646.22;10392629;28;20059;-65
2023/03/16 22:36:08;;;;;;;23.23;11.30;;;;;;;3.85;59.40;99637.66;10396587;28;20059;-64
2023/03/16 22:41:16;;;;;;;13.82;7.63;;;;;;;3.71;59.58;99625.22;10395370;28;20048;-64
2023/03/16 22:46:22;;;;;;;13.90;8.35;;;;;;;3.61;59.50;99629.03;10392792;28;20413;-64
2023/03/16 22:51:23;;;;;;;11.18;7.25;;;;;;;3.72;59.96;99628.66;10387554;28;20045;-65
2023/03/16 22:56:27;;;;;;;17.50;9.10;;;;;;;3.73;59.59;99632.91;10393822;28;20045;-65
2023/03/16 23:01:41;;;;;;;25.48;10.98;;;;;;;3.71;59.89;99648.50;10393669;28;20053;-64
2023/03/16 23:06:43;;;;;;;23.60;11.00;;;;;;;3.60;59.66;99629.91;10385855;28;20672;-65
2023/03/16 23:11:46;;;;;;;12.80;7.20;;;;;;;3.52;60.13;99620.75;10392458;28;20051;-65
2023/03/16 23:16:48;;;;;;;14.20;8.43;;;;;;;3.53;60.13;99609.53;10392287;28;20476;-65
2023/03/16 23:21:53;;;;;;;15.45;7.78;;;;;;;3.61;60.14;99603.19;10392004;28;20664;-65
2023/03/16 23:26:55;;;;;;;11.95;8.02;;;;;;;3.70;60.04;99587.31;10393136;28;20544;-64